Terminal Aerodrome Forecast
Issued by NWS Tulsa, OK

Home | Current Version | Previous Version | Text Only | Print | Product List | Glossary On
Versions: 1 2 3 4 5 6 7 8 9 10 11 12
000
FTUS44 KTSA 031120
TAFTUL
TAF
KTUL 031120Z 0312/0412 VRB05KT P6SM SCT025 BKN070
     FM031800 34010KT P6SM VCTS BKN050CB
     FM040100 01005KT P6SM BKN150=

USA.gov is the U.S. government's official web portal to all federal, state and local government web resources and services.